sensor_id;sensor_type;location;lat;lon;timestamp;pressure;altitude;pressure_sealevel;temperature;humidity
55755;BME280;41674;52.290;-1.474;2023-02-13T00:00:49;102931.73;;;6.74;76.47
55755;BME280;41674;52.290;-1.474;2023-02-13T00:03:18;102930.98;;;7.26;73.92
55755;BME280;41674;52.290;-1.474;2023-02-13T00:05:47;102927.30;;;7.30;74.36
55755;BME280;41674;52.290;-1.474;2023-02-13T00:08:17;102927.97;;;7.19;75.26
55755;BME280;41674;52.290;-1.474;2023-02-13T00:10:46;102928.50;;;7.39;75.25
55755;BME280;41674;52.290;-1.474;2023-02-13T00:13:16;102928.58;;;7.49;74.81
55755;BME280;41674;52.290;-1.474;2023-02-13T00:15:45;102925.18;;;7.19;76.67
55755;BME280;41674;52.290;-1.474;2023-02-13T00:18:15;102928.75;;;7.03;76.78
55755;BME280;41674;52.290;-1.474;2023-02-13T00:20:44;102930.56;;;7.75;73.51
55755;BME280;41674;52.290;-1.474;2023-02-13T00:23:13;102932.02;;;8.31;71.97
55755;BME280;41674;52.290;-1.474;2023-02-13T00:25:42;102938.59;;;7.70;74.15
55755;BME280;41674;52.290;-1.474;2023-02-13T00:28:11;102938.20;;;7.47;73.96
55755;BME280;41674;52.290;-1.474;2023-02-13T00:30:41;102932.80;;;8.26;71.86
55755;BME280;41674;52.290;-1.474;2023-02-13T00:33:11;102928.72;;;7.98;72.58
55755;BME280;41674;52.290;-1.474;2023-02-13T00:35:40;102923.11;;;8.32;71.92
55755;BME280;41674;52.290;-1.474;2023-02-13T00:38:10;102920.26;;;8.04;71.50
55755;BME280;41674;52.290;-1.474;2023-02-13T00:40:44;102919.43;;;8.34;70.13
55755;BME280;41674;52.290;-1.474;2023-02-13T00:43:09;102927.42;;;7.64;73.45
55755;BME280;41674;52.290;-1.474;2023-02-13T00:45:38;102920.38;;;7.39;75.79
55755;BME280;41674;52.290;-1.474;2023-02-13T00:48:07;102919.10;;;7.33;76.46
55755;BME280;41674;52.290;-1.474;2023-02-13T00:50:36;102915.74;;;7.11;76.27
55755;BME280;41674;52.290;-1.474;2023-02-13T00:53:06;102915.67;;;7.96;74.29
55755;BME280;41674;52.290;-1.474;2023-02-13T00:55:35;102917.29;;;8.39;72.22
55755;BME280;41674;52.290;-1.474;2023-02-13T00:58:05;102917.15;;;5.96;78.75
55755;BME280;41674;52.290;-1.474;2023-02-13T01:00:34;102914.54;;;7.27;77.34
55755;BME280;41674;52.290;-1.474;2023-02-13T01:03:03;102913.20;;;6.99;77.50
55755;BME280;41674;52.290;-1.474;2023-02-13T01:05:32;102912.05;;;6.77;77.52
55755;BME280;41674;52.290;-1.474;2023-02-13T01:08:01;102911.75;;;7.22;75.95
55755;BME280;41674;52.290;-1.474;2023-02-13T01:10:31;102904.66;;;7.81;74.11
55755;BME280;41674;52.290;-1.474;2023-02-13T01:13:00;102901.37;;;7.81;73.98
55755;BME280;41674;52.290;-1.474;2023-02-13T01:15:31;102891.27;;;8.11;71.85
55755;BME280;41674;52.290;-1.474;2023-02-13T01:18:00;102896.55;;;6.86;76.79
55755;BME280;41674;52.290;-1.474;2023-02-13T01:20:29;102894.43;;;6.92;77.26
55755;BME280;41674;52.290;-1.474;2023-02-13T01:22:58;102893.77;;;7.34;75.72
55755;BME280;41674;52.290;-1.474;2023-02-13T01:25:33;102890.12;;;7.69;75.36
55755;BME280;41674;52.290;-1.474;2023-02-13T01:27:57;102886.11;;;7.82;74.14
55755;BME280;41674;52.290;-1.474;2023-02-13T01:30:27;102888.80;;;7.97;73.62
55755;BME280;41674;52.290;-1.474;2023-02-13T01:32:56;102887.73;;;8.39;72.92
55755;BME280;41674;52.290;-1.474;2023-02-13T01:35:26;102880.07;;;8.53;71.17
55755;BME280;41674;52.290;-1.474;2023-02-13T01:37:56;102886.17;;;6.88;75.37
55755;BME280;41674;52.290;-1.474;2023-02-13T01:40:30;102888.58;;;6.82;77.24
55755;BME280;41674;52.290;-1.474;2023-02-13T01:42:54;102889.95;;;7.38;74.81
55755;BME280;41674;52.290;-1.474;2023-02-13T01:45:25;102891.06;;;7.55;74.39
55755;BME280;41674;52.290;-1.474;2023-02-13T01:47:56;102885.00;;;8.17;72.95
55755;BME280;41674;52.290;-1.474;2023-02-13T01:50:29;102878.86;;;8.45;71.22
55755;BME280;41674;52.290;-1.474;2023-02-13T01:52:56;102880.49;;;8.17;71.08
55755;BME280;41674;52.290;-1.474;2023-02-13T01:55:23;102883.66;;;8.82;69.23
55755;BME280;41674;52.290;-1.474;2023-02-13T01:57:53;102882.37;;;8.00;71.65
55755;BME280;41674;52.290;-1.474;2023-02-13T02:00:21;102878.02;;;8.23;71.97
55755;BME280;41674;52.290;-1.474;2023-02-13T02:02:54;102873.21;;;8.14;71.32
55755;BME280;41674;52.290;-1.474;2023-02-13T02:05:21;102877.55;;;8.11;72.68
55755;BME280;41674;52.290;-1.474;2023-02-13T02:07:49;102880.65;;;7.87;73.10
55755;BME280;41674;52.290;-1.474;2023-02-13T02:10:19;102872.52;;;8.27;71.51
55755;BME280;41674;52.290;-1.474;2023-02-13T02:12:52;102872.94;;;8.10;71.13
55755;BME280;41674;52.290;-1.474;2023-02-13T02:15:22;102881.36;;;7.22;75.72
55755;BME280;41674;52.290;-1.474;2023-02-13T02:17:47;102879.90;;;7.80;74.51
55755;BME280;41674;52.290;-1.474;2023-02-13T02:20:25;102872.07;;;8.02;73.21
55755;BME280;41674;52.290;-1.474;2023-02-13T02:23:03;102872.10;;;8.07;73.10
55755;BME280;41674;52.290;-1.474;2023-02-13T02:25:38;102869.26;;;8.28;71.82
55755;BME280;41674;52.290;-1.474;2023-02-13T02:32:56;102865.27;;;8.52;68.17
55755;BME280;41674;52.290;-1.474;2023-02-13T02:35:20;102863.03;;;8.16;70.71
55755;BME280;41674;52.290;-1.474;2023-02-13T02:37:50;102866.04;;;8.22;69.23
55755;BME280;41674;52.290;-1.474;2023-02-13T02:40:18;102861.39;;;8.79;67.49
55755;BME280;41674;52.290;-1.474;2023-02-13T02:42:49;102857.17;;;9.16;66.51
55755;BME280;41674;52.290;-1.474;2023-02-13T02:45:16;102854.27;;;9.27;65.99
55755;BME280;41674;52.290;-1.474;2023-02-13T02:47:50;102850.23;;;7.89;69.13
55755;BME280;41674;52.290;-1.474;2023-02-13T02:50:22;102850.03;;;7.33;72.13
55755;BME280;41674;52.290;-1.474;2023-02-13T02:52:44;102850.89;;;7.85;69.99
55755;BME280;41674;52.290;-1.474;2023-02-13T02:55:12;102845.72;;;7.47;70.34
55755;BME280;41674;52.290;-1.474;2023-02-13T02:57:38;102846.66;;;8.34;69.70
55755;BME280;41674;52.290;-1.474;2023-02-13T03:00:06;102842.83;;;8.27;70.26
55755;BME280;41674;52.290;-1.474;2023-02-13T03:02:35;102842.47;;;8.15;69.56
55755;BME280;41674;52.290;-1.474;2023-02-13T03:05:14;102842.77;;;8.15;69.28
55755;BME280;41674;52.290;-1.474;2023-02-13T03:07:38;102849.16;;;7.25;73.20
55755;BME280;41674;52.290;-1.474;2023-02-13T03:10:06;102850.88;;;7.44;73.22
55755;BME280;41674;52.290;-1.474;2023-02-13T03:12:38;102843.12;;;7.58;72.74
55755;BME280;41674;52.290;-1.474;2023-02-13T03:15:02;102844.01;;;7.73;73.08
55755;BME280;41674;52.290;-1.474;2023-02-13T03:17:31;102846.41;;;6.20;78.73
55755;BME280;41674;52.290;-1.474;2023-02-13T03:20:11;102846.23;;;6.45;79.50
55755;BME280;41674;52.290;-1.474;2023-02-13T03:22:39;102847.88;;;6.11;81.50
55755;BME280;41674;52.290;-1.474;2023-02-13T03:25:06;102844.50;;;5.19;83.89
55755;BME280;41674;52.290;-1.474;2023-02-13T03:27:35;102841.84;;;6.81;79.73
55755;BME280;41674;52.290;-1.474;2023-02-13T03:30:04;102840.20;;;6.41;79.73
55755;BME280;41674;52.290;-1.474;2023-02-13T03:32:37;102839.82;;;6.12;80.94
55755;BME280;41674;52.290;-1.474;2023-02-13T03:35:06;102839.93;;;5.36;82.19
55755;BME280;41674;52.290;-1.474;2023-02-13T03:37:29;102839.44;;;6.42;80.70
55755;BME280;41674;52.290;-1.474;2023-02-13T03:40:00;102841.13;;;7.15;77.62
55755;BME280;41674;52.290;-1.474;2023-02-13T03:42:29;102835.29;;;7.13;76.09
55755;BME280;41674;52.290;-1.474;2023-02-13T03:44:58;102830.33;;;7.93;73.75
55755;BME280;41674;52.290;-1.474;2023-02-13T03:47:24;102829.43;;;8.12;72.79
55755;BME280;41674;52.290;-1.474;2023-02-13T03:49:53;102830.77;;;8.61;69.97
55755;BME280;41674;52.290;-1.474;2023-02-13T03:52:26;102830.28;;;7.85;71.15
55755;BME280;41674;52.290;-1.474;2023-02-13T03:54:54;102831.21;;;8.58;70.07
55755;BME280;41674;52.290;-1.474;2023-02-13T03:57:23;102828.63;;;8.23;71.14
55755;BME280;41674;52.290;-1.474;2023-02-13T03:59:50;102836.47;;;6.41;78.68
55755;BME280;41674;52.290;-1.474;2023-02-13T04:02:24;102836.28;;;7.14;75.62
55755;BME280;41674;52.290;-1.474;2023-02-13T04:04:53;102835.61;;;7.52;76.10
55755;BME280;41674;52.290;-1.474;2023-02-13T04:07:20;102838.01;;;6.76;79.28
55755;BME280;41674;52.290;-1.474;2023-02-13T04:09:58;102840.87;;;6.84;79.53
55755;BME280;41674;52.290;-1.474;2023-02-13T04:12:19;102840.31;;;7.52;78.58
55755;BME280;41674;52.290;-1.474;2023-02-13T04:14:51;102836.09;;;7.13;78.20
55755;BME280;41674;52.290;-1.474;2023-02-13T04:17:20;102833.64;;;7.35;77.31
55755;BME280;41674;52.290;-1.474;2023-02-13T04:19:46;102830.76;;;6.75;79.59
55755;BME280;41674;52.290;-1.474;2023-02-13T04:22:16;102827.22;;;6.42;80.59
55755;BME280;41674;52.290;-1.474;2023-02-13T04:24:45;102826.09;;;6.13;81.86
55755;BME280;41674;52.290;-1.474;2023-02-13T04:27:16;102827.63;;;6.54;81.54
55755;BME280;41674;52.290;-1.474;2023-02-13T04:29:44;102824.18;;;5.61;83.62
55755;BME280;41674;52.290;-1.474;2023-02-13T04:32:13;102824.12;;;6.27;83.60
55755;BME280;41674;52.290;-1.474;2023-02-13T04:34:48;102826.02;;;6.44;81.87
55755;BME280;41674;52.290;-1.474;2023-02-13T04:37:13;102825.78;;;6.17;82.36
55755;BME280;41674;52.290;-1.474;2023-02-13T04:39:41;102827.42;;;6.96;79.10
55755;BME280;41674;52.290;-1.474;2023-02-13T04:42:11;102827.30;;;7.30;77.25
55755;BME280;41674;52.290;-1.474;2023-02-13T04:44:40;102825.83;;;7.50;76.82
55755;BME280;41674;52.290;-1.474;2023-02-13T04:47:10;102824.31;;;6.74;79.54
55755;BME280;41674;52.290;-1.474;2023-02-13T04:49:39;102821.29;;;7.21;78.84
55755;BME280;41674;52.290;-1.474;2023-02-13T04:52:09;102818.09;;;7.30;77.84
55755;BME280;41674;52.290;-1.474;2023-02-13T04:54:38;102825.91;;;6.92;78.74
55755;BME280;41674;52.290;-1.474;2023-02-13T04:57:07;102818.67;;;7.04;80.88
55755;BME280;41674;52.290;-1.474;2023-02-13T04:59:37;102813.12;;;6.33;80.65
55755;BME280;41674;52.290;-1.474;2023-02-13T05:02:06;102810.71;;;6.74;80.64
55755;BME280;41674;52.290;-1.474;2023-02-13T05:04:35;102810.51;;;7.44;76.69
55755;BME280;41674;52.290;-1.474;2023-02-13T05:07:05;102805.51;;;7.64;74.45
55755;BME280;41674;52.290;-1.474;2023-02-13T05:09:35;102815.70;;;6.91;78.05
55755;BME280;41674;52.290;-1.474;2023-02-13T05:12:05;102815.52;;;7.05;77.76
55755;BME280;41674;52.290;-1.474;2023-02-13T05:14:34;102813.85;;;6.54;79.86
55755;BME280;41674;52.290;-1.474;2023-02-13T05:17:09;102812.87;;;6.81;78.19
55755;BME280;41674;52.290;-1.474;2023-02-13T05:19:34;102810.83;;;5.99;82.32
55755;BME280;41674;52.290;-1.474;2023-02-13T05:22:04;102808.79;;;6.36;81.44
55755;BME280;41674;52.290;-1.474;2023-02-13T05:24:38;102811.89;;;6.57;80.34
55755;BME280;41674;52.290;-1.474;2023-02-13T05:27:02;102815.74;;;6.20;81.22
55755;BME280;41674;52.290;-1.474;2023-02-13T05:29:32;102817.85;;;6.50;78.35
55755;BME280;41674;52.290;-1.474;2023-02-13T05:32:06;102816.48;;;6.20;78.71
55755;BME280;41674;52.290;-1.474;2023-02-13T05:34:31;102813.66;;;6.67;77.70
55755;BME280;41674;52.290;-1.474;2023-02-13T05:37:01;102816.02;;;6.74;77.91
55755;BME280;41674;52.290;-1.474;2023-02-13T05:39:30;102815.31;;;5.55;80.30
55755;BME280;41674;52.290;-1.474;2023-02-13T05:42:00;102812.20;;;5.88;82.04
55755;BME280;41674;52.290;-1.474;2023-02-13T05:44:30;102809.19;;;5.54;82.68
55755;BME280;41674;52.290;-1.474;2023-02-13T05:46:59;102804.80;;;6.32;80.77
55755;BME280;41674;52.290;-1.474;2023-02-13T05:49:28;102806.09;;;6.94;77.02
55755;BME280;41674;52.290;-1.474;2023-02-13T05:51:57;102804.76;;;7.74;73.95
55755;BME280;41674;52.290;-1.474;2023-02-13T05:54:27;102804.20;;;7.37;74.04
55755;BME280;41674;52.290;-1.474;2023-02-13T05:56:56;102806.82;;;7.60;72.97
55755;BME280;41674;52.290;-1.474;2023-02-13T05:59:26;102814.57;;;7.31;74.28
55755;BME280;41674;52.290;-1.474;2023-02-13T06:01:55;102817.38;;;7.07;75.05
55755;BME280;41674;52.290;-1.474;2023-02-13T06:04:24;102819.47;;;6.50;76.55
55755;BME280;41674;52.290;-1.474;2023-02-13T06:06:54;102819.37;;;6.68;75.54
55755;BME280;41674;52.290;-1.474;2023-02-13T06:09:24;102819.14;;;7.05;74.74
55755;BME280;41674;52.290;-1.474;2023-02-13T06:11:54;102818.03;;;6.91;73.80
55755;BME280;41674;52.290;-1.474;2023-02-13T06:14:22;102821.68;;;6.67;76.27
55755;BME280;41674;52.290;-1.474;2023-02-13T06:16:53;102816.21;;;7.45;73.25
55755;BME280;41674;52.290;-1.474;2023-02-13T06:19:21;102817.53;;;7.61;72.07
55755;BME280;41674;52.290;-1.474;2023-02-13T06:21:50;102817.66;;;7.60;72.80
55755;BME280;41674;52.290;-1.474;2023-02-13T06:24:23;102818.26;;;7.54;74.28
55755;BME280;41674;52.290;-1.474;2023-02-13T06:26:49;102813.04;;;7.63;73.40
55755;BME280;41674;52.290;-1.474;2023-02-13T06:29:18;102820.22;;;7.20;75.28
55755;BME280;41674;52.290;-1.474;2023-02-13T06:31:48;102822.80;;;7.12;75.49
55755;BME280;41674;52.290;-1.474;2023-02-13T06:34:18;102824.11;;;5.87;78.40
55755;BME280;41674;52.290;-1.474;2023-02-13T06:36:52;102827.20;;;4.60;83.22
55755;BME280;41674;52.290;-1.474;2023-02-13T06:39:17;102824.80;;;5.71;81.93
55755;BME280;41674;52.290;-1.474;2023-02-13T06:41:50;102824.45;;;5.50;82.18
55755;BME280;41674;52.290;-1.474;2023-02-13T06:44:15;102825.42;;;6.11;79.79
55755;BME280;41674;52.290;-1.474;2023-02-13T06:46:45;102823.67;;;6.18;78.96
55755;BME280;41674;52.290;-1.474;2023-02-13T06:49:14;102821.78;;;5.71;81.60
55755;BME280;41674;52.290;-1.474;2023-02-13T06:51:44;102827.11;;;6.04;79.78
55755;BME280;41674;52.290;-1.474;2023-02-13T06:54:13;102828.21;;;6.66;77.30
55755;BME280;41674;52.290;-1.474;2023-02-13T06:56:43;102827.30;;;5.20;80.99
55755;BME280;41674;52.290;-1.474;2023-02-13T06:59:12;102832.84;;;6.39;76.46
55755;BME280;41674;52.290;-1.474;2023-02-13T07:01:42;102830.42;;;6.12;77.56
55755;BME280;41674;52.290;-1.474;2023-02-13T07:04:11;102829.03;;;6.18;75.80
55755;BME280;41674;52.290;-1.474;2023-02-13T07:06:41;102830.69;;;5.87;78.62
55755;BME280;41674;52.290;-1.474;2023-02-13T07:09:10;102827.43;;;5.62;79.04
55755;BME280;41674;52.290;-1.474;2023-02-13T07:11:40;102825.82;;;5.79;79.75
55755;BME280;41674;52.290;-1.474;2023-02-13T07:14:09;102820.68;;;5.87;78.52
55755;BME280;41674;52.290;-1.474;2023-02-13T07:16:38;102814.34;;;6.25;77.24
55755;BME280;41674;52.290;-1.474;2023-02-13T07:19:08;102811.41;;;5.65;81.56
55755;BME280;41674;52.290;-1.474;2023-02-13T07:21:37;102812.50;;;5.96;80.51
55755;BME280;41674;52.290;-1.474;2023-02-13T07:24:07;102819.25;;;4.99;84.09
55755;BME280;41674;52.290;-1.474;2023-02-13T07:26:37;102814.59;;;5.76;81.09
55755;BME280;41674;52.290;-1.474;2023-02-13T07:29:06;102819.94;;;5.74;81.96
55755;BME280;41674;52.290;-1.474;2023-02-13T07:31:35;102816.92;;;6.35;79.46
55755;BME280;41674;52.290;-1.474;2023-02-13T07:34:05;102814.46;;;5.48;80.57
55755;BME280;41674;52.290;-1.474;2023-02-13T07:36:35;102821.86;;;5.96;79.95
55755;BME280;41674;52.290;-1.474;2023-02-13T07:39:04;102817.88;;;6.46;78.20
55755;BME280;41674;52.290;-1.474;2023-02-13T07:41:34;102815.91;;;6.58;77.79
55755;BME280;41674;52.290;-1.474;2023-02-13T07:44:03;102816.97;;;5.90;80.02
55755;BME280;41674;52.290;-1.474;2023-02-13T07:46:33;102818.87;;;5.72;80.12
55755;BME280;41674;52.290;-1.474;2023-02-13T07:49:02;102823.54;;;6.77;76.94
55755;BME280;41674;52.290;-1.474;2023-02-13T07:51:31;102819.76;;;4.97;81.38
55755;BME280;41674;52.290;-1.474;2023-02-13T07:54:01;102824.96;;;4.60;84.64
55755;BME280;41674;52.290;-1.474;2023-02-13T07:56:31;102823.98;;;5.97;80.44
55755;BME280;41674;52.290;-1.474;2023-02-13T07:59:00;102821.83;;;6.20;79.58
55755;BME280;41674;52.290;-1.474;2023-02-13T08:01:30;102820.44;;;5.61;80.61
55755;BME280;41674;52.290;-1.474;2023-02-13T08:06:29;102819.56;;;5.74;80.01
55755;BME280;41674;52.290;-1.474;2023-02-13T08:08:58;102823.41;;;5.58;81.64
55755;BME280;41674;52.290;-1.474;2023-02-13T08:11:31;102823.17;;;5.42;81.77
55755;BME280;41674;52.290;-1.474;2023-02-13T08:14:02;102816.70;;;6.01;79.33
55755;BME280;41674;52.290;-1.474;2023-02-13T08:16:27;102815.94;;;6.46;77.98
55755;BME280;41674;52.290;-1.474;2023-02-13T08:21:26;102817.49;;;6.08;78.57
55755;BME280;41674;52.290;-1.474;2023-02-13T08:23:55;102818.83;;;6.67;76.45
55755;BME280;41674;52.290;-1.474;2023-02-13T08:26:24;102818.77;;;6.46;76.45
55755;BME280;41674;52.290;-1.474;2023-02-13T08:28:59;102819.39;;;6.16;76.90
55755;BME280;41674;52.290;-1.474;2023-02-13T08:31:23;102822.13;;;4.76;82.43
55755;BME280;41674;52.290;-1.474;2023-02-13T08:33:54;102822.60;;;5.89;78.41
55755;BME280;41674;52.290;-1.474;2023-02-13T08:36:22;102820.27;;;6.00;77.30
55755;BME280;41674;52.290;-1.474;2023-02-13T08:38:51;102820.11;;;4.81;81.93
55755;BME280;41674;52.290;-1.474;2023-02-13T08:41:21;102818.65;;;6.20;77.01
55755;BME280;41674;52.290;-1.474;2023-02-13T08:43:55;102824.18;;;6.90;74.63
55755;BME280;41674;52.290;-1.474;2023-02-13T08:46:20;102823.91;;;6.54;74.48
55755;BME280;41674;52.290;-1.474;2023-02-13T08:48:49;102820.53;;;6.42;74.76
55755;BME280;41674;52.290;-1.474;2023-02-13T08:51:18;102826.78;;;5.71;76.39
55755;BME280;41674;52.290;-1.474;2023-02-13T08:53:48;102820.93;;;6.04;75.52
55755;BME280;41674;52.290;-1.474;2023-02-13T08:56:17;102819.36;;;5.00;79.12
55755;BME280;41674;52.290;-1.474;2023-02-13T08:58:48;102817.17;;;5.76;78.61
55755;BME280;41674;52.290;-1.474;2023-02-13T09:01:18;102815.02;;;5.64;77.97
55755;BME280;41674;52.290;-1.474;2023-02-13T09:03:46;102815.79;;;6.05;77.38
55755;BME280;41674;52.290;-1.474;2023-02-13T09:06:16;102816.61;;;4.78;79.41
55755;BME280;41674;52.290;-1.474;2023-02-13T09:08:45;102818.00;;;4.48;82.69
55755;BME280;41674;52.290;-1.474;2023-02-13T09:11:14;102814.42;;;5.19;80.09
55755;BME280;41674;52.290;-1.474;2023-02-13T09:13:44;102814.58;;;5.31;78.27
55755;BME280;41674;52.290;-1.474;2023-02-13T09:16:14;102810.96;;;5.62;77.33
55755;BME280;41674;52.290;-1.474;2023-02-13T09:18:46;102814.81;;;5.69;77.83
55755;BME280;41674;52.290;-1.474;2023-02-13T09:21:14;102814.54;;;5.96;77.31
55755;BME280;41674;52.290;-1.474;2023-02-13T09:23:42;102810.66;;;5.71;77.29
55755;BME280;41674;52.290;-1.474;2023-02-13T09:26:14;102813.98;;;5.02;79.04
55755;BME280;41674;52.290;-1.474;2023-02-13T09:28:42;102823.86;;;4.78;81.17
55755;BME280;41674;52.290;-1.474;2023-02-13T09:31:14;102819.50;;;4.96;81.61
55755;BME280;41674;52.290;-1.474;2023-02-13T09:33:41;102818.26;;;5.04;81.37
55755;BME280;41674;52.290;-1.474;2023-02-13T09:36:12;102813.18;;;4.56;83.13
55755;BME280;41674;52.290;-1.474;2023-02-13T09:38:45;102803.70;;;5.34;80.40
55755;BME280;41674;52.290;-1.474;2023-02-13T09:41:12;102800.22;;;5.02;82.00
55755;BME280;41674;52.290;-1.474;2023-02-13T09:43:43;102799.98;;;5.08;82.10
55755;BME280;41674;52.290;-1.474;2023-02-13T09:46:12;102794.41;;;4.59;83.85
55755;BME280;41674;52.290;-1.474;2023-02-13T09:48:39;102796.63;;;5.71;78.25
55755;BME280;41674;52.290;-1.474;2023-02-13T09:51:06;102791.69;;;5.91;77.78
55755;BME280;41674;52.290;-1.474;2023-02-13T09:53:35;102788.86;;;5.82;78.67
55755;BME280;41674;52.290;-1.474;2023-02-13T09:56:10;102791.31;;;4.71;80.84
55755;BME280;41674;52.290;-1.474;2023-02-13T09:58:40;102792.34;;;4.63;81.66
55755;BME280;41674;52.290;-1.474;2023-02-13T10:01:05;102794.99;;;5.18;80.62
55755;BME280;41674;52.290;-1.474;2023-02-13T10:03:39;102788.84;;;5.38;79.78
55755;BME280;41674;52.290;-1.474;2023-02-13T10:06:07;102799.30;;;5.22;80.92
55755;BME280;41674;52.290;-1.474;2023-02-13T10:08:40;102803.42;;;5.87;78.11
55755;BME280;41674;52.290;-1.474;2023-02-13T10:11:07;102802.11;;;6.26;77.47
55755;BME280;41674;52.290;-1.474;2023-02-13T10:13:45;102803.58;;;7.19;73.52
55755;BME280;41674;52.290;-1.474;2023-02-13T10:16:06;102804.62;;;7.10;72.55
55755;BME280;41674;52.290;-1.474;2023-02-13T10:18:41;102802.67;;;7.08;72.92
55755;BME280;41674;52.290;-1.474;2023-02-13T10:20:59;102802.85;;;6.94;73.41
55755;BME280;41674;52.290;-1.474;2023-02-13T10:23:37;102802.14;;;6.70;74.94
55755;BME280;41674;52.290;-1.474;2023-02-13T10:26:07;102796.93;;;6.29;76.68
55755;BME280;41674;52.290;-1.474;2023-02-13T10:28:32;102793.80;;;5.36;81.67
55755;BME280;41674;52.290;-1.474;2023-02-13T10:31:01;102794.22;;;5.86;80.26
55755;BME280;41674;52.290;-1.474;2023-02-13T10:33:29;102793.48;;;6.40;79.07
55755;BME280;41674;52.290;-1.474;2023-02-13T10:36:00;102793.20;;;6.16;78.39
55755;BME280;41674;52.290;-1.474;2023-02-13T10:38:28;102796.36;;;6.31;79.89
55755;BME280;41674;52.290;-1.474;2023-02-13T10:41:04;102795.91;;;6.60;77.94
55755;BME280;41674;52.290;-1.474;2023-02-13T10:43:26;102796.44;;;6.44;78.26
55755;BME280;41674;52.290;-1.474;2023-02-13T10:46:00;102797.41;;;5.84;80.27
55755;BME280;41674;52.290;-1.474;2023-02-13T10:48:34;102791.41;;;6.13;78.75
55755;BME280;41674;52.290;-1.474;2023-02-13T10:50:57;102788.71;;;5.79;81.21
55755;BME280;41674;52.290;-1.474;2023-02-13T10:53:40;102791.43;;;6.36;78.81
55755;BME280;41674;52.290;-1.474;2023-02-13T10:56:07;102789.17;;;6.50;78.34
55755;BME280;41674;52.290;-1.474;2023-02-13T10:58:23;102785.89;;;6.45;77.35
55755;BME280;41674;52.290;-1.474;2023-02-13T11:00:52;102785.02;;;6.59;77.85
55755;BME280;41674;52.290;-1.474;2023-02-13T11:03:21;102783.73;;;6.26;78.95
55755;BME280;41674;52.290;-1.474;2023-02-13T11:05:49;102783.82;;;6.65;78.23
55755;BME280;41674;52.290;-1.474;2023-02-13T11:08:20;102781.29;;;6.85;76.89
55755;BME280;41674;52.290;-1.474;2023-02-13T11:10:47;102782.69;;;6.52;77.31
55755;BME280;41674;52.290;-1.474;2023-02-13T11:13:20;102782.39;;;6.98;75.78
55755;BME280;41674;52.290;-1.474;2023-02-13T11:15:56;102786.34;;;6.53;76.40
55755;BME280;41674;52.290;-1.474;2023-02-13T11:18:19;102780.82;;;7.03;75.76
55755;BME280;41674;52.290;-1.474;2023-02-13T11:20:58;102778.96;;;6.97;76.54
55755;BME280;41674;52.290;-1.474;2023-02-13T11:23:32;102766.93;;;7.41;76.23
55755;BME280;41674;52.290;-1.474;2023-02-13T11:25:54;102775.79;;;7.09;77.01
55755;BME280;41674;52.290;-1.474;2023-02-13T11:28:17;102775.20;;;7.17;74.69
55755;BME280;41674;52.290;-1.474;2023-02-13T11:30:42;102766.63;;;7.54;74.12
55755;BME280;41674;52.290;-1.474;2023-02-13T11:33:22;102761.27;;;7.23;73.86
55755;BME280;41674;52.290;-1.474;2023-02-13T11:35:42;102754.95;;;7.88;73.74
55755;BME280;41674;52.290;-1.474;2023-02-13T11:38:19;102751.20;;;8.26;71.24
55755;BME280;41674;52.290;-1.474;2023-02-13T11:40:42;102751.01;;;7.95;70.92
55755;BME280;41674;52.290;-1.474;2023-02-13T11:43:17;102742.84;;;8.26;70.13
55755;BME280;41674;52.290;-1.474;2023-02-13T11:45:40;102737.94;;;9.01;68.98
55755;BME280;41674;52.290;-1.474;2023-02-13T11:48:18;102741.16;;;8.93;69.63
55755;BME280;41674;52.290;-1.474;2023-02-13T11:50:39;102741.81;;;8.90;66.16
55755;BME280;41674;52.290;-1.474;2023-02-13T11:53:18;102739.45;;;8.56;67.43
55755;BME280;41674;52.290;-1.474;2023-02-13T11:55:40;102737.58;;;8.91;66.87
55755;BME280;41674;52.290;-1.474;2023-02-13T11:58:22;102733.38;;;9.56;65.30
55755;BME280;41674;52.290;-1.474;2023-02-13T12:00:39;102730.80;;;9.71;63.88
55755;BME280;41674;52.290;-1.474;2023-02-13T12:05:35;102736.43;;;9.10;64.96
55755;BME280;41674;52.290;-1.474;2023-02-13T12:08:08;102738.97;;;8.80;66.76
55755;BME280;41674;52.290;-1.474;2023-02-13T12:10:37;102739.18;;;8.33;67.99
55755;BME280;41674;52.290;-1.474;2023-02-13T12:13:12;102738.04;;;8.40;67.77
55755;BME280;41674;52.290;-1.474;2023-02-13T12:15:35;102731.70;;;7.80;69.53
55755;BME280;41674;52.290;-1.474;2023-02-13T12:18:10;102730.16;;;7.87;72.37
55755;BME280;41674;52.290;-1.474;2023-02-13T12:20:42;102729.55;;;8.48;72.24
55755;BME280;41674;52.290;-1.474;2023-02-13T12:23:06;102734.22;;;8.58;70.62
55755;BME280;41674;52.290;-1.474;2023-02-13T12:25:46;102733.14;;;8.10;69.85
55755;BME280;41674;52.290;-1.474;2023-02-13T12:28:10;102730.83;;;8.91;69.43
55755;BME280;41674;52.290;-1.474;2023-02-13T12:30:45;102726.81;;;9.21;70.47
55755;BME280;41674;52.290;-1.474;2023-02-13T12:33:09;102724.42;;;7.62;75.46
55755;BME280;41674;52.290;-1.474;2023-02-13T12:35:38;102725.38;;;8.43;72.59
55755;BME280;41674;52.290;-1.474;2023-02-13T12:38:03;102717.43;;;8.90;72.09
55755;BME280;41674;52.290;-1.474;2023-02-13T12:40:38;102713.19;;;8.77;71.45
55755;BME280;41674;52.290;-1.474;2023-02-13T12:43:12;102710.32;;;10.16;67.99
55755;BME280;41674;52.290;-1.474;2023-02-13T12:45:34;102709.05;;;10.59;64.85
55755;BME280;41674;52.290;-1.474;2023-02-13T12:48:09;102705.59;;;10.72;64.48
55755;BME280;41674;52.290;-1.474;2023-02-13T12:50:33;102702.02;;;9.85;64.50
55755;BME280;41674;52.290;-1.474;2023-02-13T12:53:05;102701.16;;;9.73;67.35
55755;BME280;41674;52.290;-1.474;2023-02-13T12:55:36;102701.71;;;9.80;65.66
55755;BME280;41674;52.290;-1.474;2023-02-13T12:58:06;102704.39;;;10.33;65.07
55755;BME280;41674;52.290;-1.474;2023-02-13T13:00:34;102695.96;;;10.88;62.48
55755;BME280;41674;52.290;-1.474;2023-02-13T13:03:05;102684.32;;;11.09;61.73
55755;BME280;41674;52.290;-1.474;2023-02-13T13:05:30;102685.69;;;11.51;60.69
55755;BME280;41674;52.290;-1.474;2023-02-13T13:08:04;102689.64;;;10.67;63.31
55755;BME280;41674;52.290;-1.474;2023-02-13T13:10:32;102674.80;;;11.22;59.91
55755;BME280;41674;52.290;-1.474;2023-02-13T13:12:57;102668.66;;;12.30;58.63